createdAt,value
2023-02-25T00:00:39.028Z,86.96
2023-02-25T00:03:15.235Z,86.65
2023-02-25T00:05:42.273Z,86.55
2023-02-25T00:08:09.325Z,86.57
2023-02-25T00:10:36.484Z,86.71
2023-02-25T00:13:17.372Z,86.84
2023-02-25T00:15:45.125Z,86.96
2023-02-25T00:18:12.073Z,86.69
2023-02-25T00:20:40.552Z,87.06
2023-02-25T00:23:07.709Z,86.96
2023-02-25T00:25:34.769Z,86.20
2023-02-25T00:28:05.952Z,86.29
2023-02-25T00:30:33.982Z,86.19
2023-02-25T00:33:01.656Z,86.36
2023-02-25T00:35:28.809Z,86.46
2023-02-25T00:37:57.182Z,86.14
2023-02-25T00:40:31.000Z,86.12
2023-02-25T00:42:57.954Z,85.98
2023-02-25T00:45:25.028Z,85.85
2023-02-25T00:47:51.875Z,86.11
2023-02-25T00:50:18.866Z,85.85
2023-02-25T00:52:46.092Z,85.72
2023-02-25T00:55:13.324Z,85.67
2023-02-25T00:57:40.271Z,85.58
2023-02-25T01:00:15.319Z,85.72
2023-02-25T01:02:45.050Z,85.48
2023-02-25T01:05:13.507Z,85.46
2023-02-25T01:07:41.579Z,85.40
2023-02-25T01:10:10.274Z,85.73
2023-02-25T01:12:37.322Z,85.53
2023-02-25T01:15:04.683Z,85.53
2023-02-25T01:17:34.094Z,86.77
2023-02-25T01:20:01.312Z,85.87
2023-02-25T01:22:29.114Z,85.90
2023-02-25T01:24:56.166Z,85.88
2023-02-25T01:27:23.322Z,85.65
2023-02-25T01:29:50.483Z,86.22
2023-02-25T01:32:17.695Z,85.53
2023-02-25T01:34:44.890Z,85.83
2023-02-25T01:37:11.966Z,85.91
2023-02-25T01:39:40.433Z,85.77
2023-02-25T01:42:13.013Z,85.58
2023-02-25T01:44:59.880Z,85.39
2023-02-25T01:47:35.261Z,85.36
2023-02-25T01:50:02.315Z,85.67
2023-02-25T01:52:29.472Z,85.54
2023-02-25T01:54:57.143Z,85.61
2023-02-25T01:57:24.395Z,85.49
2023-02-25T01:59:53.396Z,85.53
2023-02-25T02:02:22.117Z,85.44
2023-02-25T02:04:51.087Z,85.44
2023-02-25T02:07:20.453Z,85.88
2023-02-25T02:09:56.485Z,85.70
2023-02-25T02:12:25.238Z,85.32
2023-02-25T02:14:54.644Z,85.24
2023-02-25T02:17:30.416Z,85.22
2023-02-25T02:20:10.996Z,85.31
2023-02-25T02:22:42.512Z,85.19
2023-02-25T02:25:15.803Z,85.93
2023-02-25T02:28:04.532Z,85.44
2023-02-25T02:30:51.683Z,85.27
2023-02-25T02:33:38.948Z,85.22
2023-02-25T02:36:38.371Z,85.44
2023-02-25T02:39:24.661Z,85.12
2023-02-25T02:42:14.836Z,84.96
2023-02-25T02:44:44.863Z,84.96
2023-02-25T02:47:14.576Z,84.80
2023-02-25T02:49:48.903Z,84.92
2023-02-25T02:52:18.604Z,84.84
2023-02-25T02:54:51.488Z,85.06
2023-02-25T02:57:20.177Z,85.27
2023-02-25T02:59:52.142Z,85.39
2023-02-25T03:02:26.255Z,85.24
2023-02-25T03:04:54.743Z,85.82
2023-02-25T03:07:22.714Z,85.99
2023-02-25T03:09:51.616Z,85.60
2023-02-25T03:12:19.172Z,86.28
2023-02-25T03:14:46.355Z,85.65
2023-02-25T03:17:20.102Z,85.57
2023-02-25T03:19:47.200Z,85.47
2023-02-25T03:22:17.522Z,86.02
2023-02-25T03:25:14.249Z,85.75
2023-02-25T03:27:42.941Z,86.20
2023-02-25T03:30:31.365Z,86.38
2023-02-25T03:33:12.560Z,86.31
2023-02-25T03:35:40.944Z,85.97
2023-02-25T03:38:10.554Z,85.85
2023-02-25T03:40:39.766Z,85.84
2023-02-25T03:43:14.180Z,85.98
2023-02-25T03:45:43.196Z,86.02
2023-02-25T03:48:11.950Z,85.82
2023-02-25T03:50:44.356Z,85.90
2023-02-25T03:53:12.318Z,85.78
2023-02-25T03:56:08.033Z,85.67
2023-02-25T03:58:35.788Z,85.62
2023-02-25T04:01:04.580Z,85.65
2023-02-25T04:03:32.146Z,85.41
2023-02-25T04:05:59.401Z,85.38
2023-02-25T04:08:26.867Z,85.32
2023-02-25T04:10:53.882Z,85.35
2023-02-25T04:13:21.584Z,85.48
2023-02-25T04:15:49.806Z,85.43
2023-02-25T04:18:16.917Z,86.13
2023-02-25T04:20:44.198Z,85.69
2023-02-25T04:23:12.557Z,85.68
2023-02-25T04:25:39.510Z,85.52
2023-02-25T04:28:06.771Z,85.27
2023-02-25T04:30:34.477Z,85.09
2023-02-25T04:33:01.796Z,85.17
2023-02-25T04:35:28.847Z,85.07
2023-02-25T04:37:56.003Z,85.28
2023-02-25T04:40:23.570Z,85.14
2023-02-25T04:42:50.824Z,84.87
2023-02-25T04:45:18.288Z,84.91
2023-02-25T04:47:45.645Z,85.05
2023-02-25T04:50:12.802Z,85.14
2023-02-25T04:52:40.070Z,84.98
2023-02-25T04:55:09.376Z,85.13
2023-02-25T04:57:41.720Z,85.09
2023-02-25T05:00:14.884Z,84.95
2023-02-25T05:02:42.772Z,85.25
2023-02-25T05:05:10.646Z,85.23
2023-02-25T05:07:38.551Z,85.40
2023-02-25T05:10:10.233Z,85.10
2023-02-25T05:12:37.772Z,85.15
2023-02-25T05:15:05.391Z,85.31
2023-02-25T05:17:32.594Z,85.38
2023-02-25T05:19:59.994Z,85.30
2023-02-25T05:22:27.422Z,85.31
2023-02-25T05:24:54.742Z,85.25
2023-02-25T05:27:21.830Z,85.80
2023-02-25T05:29:51.288Z,85.66
2023-02-25T05:32:18.419Z,85.78
2023-02-25T05:34:45.550Z,85.79
2023-02-25T05:37:12.911Z,85.55
2023-02-25T05:39:39.857Z,85.41
2023-02-25T05:42:06.908Z,85.59
2023-02-25T05:44:33.967Z,85.50
2023-02-25T05:47:00.942Z,85.33
2023-02-25T05:49:28.172Z,85.51
2023-02-25T05:51:55.206Z,85.42
2023-02-25T05:54:22.300Z,85.56
2023-02-25T05:56:52.727Z,85.51
2023-02-25T05:59:19.806Z,85.75
2023-02-25T06:01:46.814Z,85.86
2023-02-25T06:04:14.072Z,84.83
2023-02-25T06:06:41.461Z,84.13
2023-02-25T06:09:09.909Z,84.46
2023-02-25T06:11:36.967Z,85.75
2023-02-25T06:14:04.131Z,85.22
2023-02-25T06:16:32.859Z,86.14
2023-02-25T06:19:01.093Z,92.02
2023-02-25T06:21:28.862Z,91.78
2023-02-25T06:23:55.935Z,89.58
2023-02-25T06:26:23.736Z,88.75
2023-02-25T06:28:51.043Z,88.27
2023-02-25T06:31:19.704Z,88.23
2023-02-25T06:33:46.889Z,87.82
2023-02-25T06:36:15.072Z,87.61
2023-02-25T06:38:43.658Z,87.23
2023-02-25T06:41:14.941Z,87.12
2023-02-25T06:43:41.961Z,87.32
2023-02-25T06:46:10.243Z,87.39
2023-02-25T06:48:37.705Z,87.08
2023-02-25T06:51:08.746Z,87.11
2023-02-25T06:53:39.384Z,87.19
2023-02-25T06:56:07.865Z,87.19
2023-02-25T06:58:35.225Z,87.14
2023-02-25T07:01:06.404Z,86.87
2023-02-25T07:03:33.424Z,86.99
2023-02-25T07:06:00.584Z,88.42
2023-02-25T07:08:27.634Z,87.37
2023-02-25T07:10:54.789Z,87.14
2023-02-25T07:13:21.840Z,87.21
2023-02-25T07:15:48.840Z,87.04
2023-02-25T07:18:15.953Z,87.26
2023-02-25T07:20:43.611Z,87.34
2023-02-25T07:23:10.776Z,88.26
2023-02-25T07:25:38.434Z,88.15
2023-02-25T07:28:05.589Z,87.79
2023-02-25T07:30:32.853Z,86.08
2023-02-25T07:32:59.897Z,87.23
2023-02-25T07:35:26.971Z,86.42
2023-02-25T07:37:53.904Z,84.09
2023-02-25T07:40:21.062Z,86.22
2023-02-25T07:42:48.032Z,86.32
2023-02-25T07:45:14.939Z,87.52
2023-02-25T07:47:42.137Z,85.83
2023-02-25T07:50:12.784Z,84.84
2023-02-25T07:52:40.115Z,85.00
2023-02-25T07:55:07.385Z,85.76
2023-02-25T07:57:35.347Z,87.54
2023-02-25T08:00:04.148Z,86.41
2023-02-25T08:02:39.412Z,86.68
2023-02-25T08:05:08.786Z,85.83
2023-02-25T08:07:35.838Z,86.54
2023-02-25T08:10:03.200Z,86.60
2023-02-25T08:12:30.384Z,86.92
2023-02-25T08:15:01.399Z,86.90
2023-02-25T08:17:32.135Z,87.20
2023-02-25T08:19:59.089Z,87.34
2023-02-25T08:22:26.251Z,87.20
2023-02-25T08:24:53.399Z,86.89
2023-02-25T08:27:20.459Z,86.63
2023-02-25T08:29:47.424Z,86.53
2023-02-25T08:32:14.618Z,86.58
2023-02-25T08:34:42.044Z,86.96
2023-02-25T08:37:10.813Z,87.25
2023-02-25T08:39:37.665Z,87.98
2023-02-25T08:42:05.133Z,87.81
2023-02-25T08:44:32.182Z,87.69
2023-02-25T08:47:00.614Z,87.72
2023-02-25T08:49:27.811Z,89.42
2023-02-25T08:51:54.864Z,88.06
2023-02-25T08:54:22.504Z,88.45
2023-02-25T08:56:49.994Z,89.74
2023-02-25T08:59:17.457Z,88.06
2023-02-25T09:01:45.016Z,86.26
2023-02-25T09:04:14.139Z,87.67
2023-02-25T09:06:41.380Z,87.35
2023-02-25T09:09:09.085Z,86.93
2023-02-25T09:11:36.149Z,87.70
2023-02-25T09:14:03.195Z,88.68
2023-02-25T09:16:31.271Z,89.05
2023-02-25T09:18:58.279Z,88.36
2023-02-25T09:21:25.563Z,90.48
2023-02-25T09:23:53.714Z,90.97
2023-02-25T09:26:21.184Z,90.63
2023-02-25T09:28:49.052Z,89.92
2023-02-25T09:31:16.950Z,90.41
2023-02-25T09:33:44.485Z,91.51
2023-02-25T09:36:16.145Z,91.05
2023-02-25T09:38:44.399Z,90.93
2023-02-25T09:41:14.470Z,89.48
2023-02-25T09:43:42.655Z,89.38
2023-02-25T09:46:13.211Z,90.66
2023-02-25T09:48:46.146Z,91.66
2023-02-25T09:51:18.620Z,93.86
2023-02-25T09:53:49.459Z,93.65
2023-02-25T09:56:17.850Z,93.13
2023-02-25T09:58:53.698Z,92.61
2023-02-25T10:01:26.404Z,92.61
2023-02-25T10:03:59.474Z,91.25
2023-02-25T10:06:42.481Z,91.66
2023-02-25T10:09:10.745Z,92.86
2023-02-25T10:11:43.976Z,92.78
2023-02-25T10:14:29.437Z,91.70
2023-02-25T10:17:05.768Z,90.56
2023-02-25T10:19:33.981Z,91.63
2023-02-25T10:22:16.807Z,90.11
2023-02-25T10:24:49.581Z,90.05
2023-02-25T10:27:16.533Z,91.11
2023-02-25T10:29:52.190Z,91.95
2023-02-25T10:32:21.632Z,91.02
2023-02-25T10:34:52.322Z,90.11
2023-02-25T10:37:24.181Z,92.54
2023-02-25T10:39:54.200Z,91.09
2023-02-25T10:42:21.230Z,92.03
2023-02-25T10:44:49.558Z,92.67
2023-02-25T10:47:20.375Z,92.95
2023-02-25T10:50:06.065Z,91.63
2023-02-25T10:52:34.231Z,92.45
2023-02-25T10:55:01.186Z,91.04
2023-02-25T10:57:41.437Z,91.72
2023-02-25T11:00:28.918Z,90.64
2023-02-25T11:03:00.995Z,91.67
2023-02-25T11:05:35.531Z,91.10
2023-02-25T11:08:07.215Z,90.13
2023-02-25T11:10:34.268Z,90.87
2023-02-25T11:13:03.175Z,90.49
2023-02-25T11:15:44.905Z,90.55
2023-02-25T11:18:21.525Z,89.88
2023-02-25T11:20:50.202Z,91.03
2023-02-25T11:23:21.248Z,91.68
2023-02-25T11:25:50.960Z,91.19
2023-02-25T11:28:38.378Z,91.25
2023-02-25T11:31:28.539Z,91.44
2023-02-25T11:33:58.887Z,90.01
2023-02-25T11:36:30.350Z,89.46
2023-02-25T11:39:13.970Z,89.13
2023-02-25T11:41:43.479Z,89.00
2023-02-25T11:44:26.288Z,89.29
2023-02-25T11:46:58.562Z,89.08
2023-02-25T11:49:25.511Z,88.84
2023-02-25T11:52:00.856Z,89.54
2023-02-25T11:54:41.208Z,89.71
2023-02-25T11:57:12.251Z,90.21
2023-02-25T11:59:49.553Z,89.25
2023-02-25T12:02:20.378Z,90.61
2023-02-25T12:04:53.978Z,91.15
2023-02-25T12:07:21.040Z,91.29
2023-02-25T12:10:00.130Z,90.93
2023-02-25T12:12:33.045Z,92.53
2023-02-25T12:15:12.281Z,91.87
2023-02-25T12:17:42.298Z,92.05
2023-02-25T12:20:28.180Z,91.20
2023-02-25T12:23:13.758Z,90.77
2023-02-25T12:25:59.744Z,89.97
2023-02-25T12:28:34.059Z,91.13
2023-02-25T12:31:01.375Z,91.31
2023-02-25T12:33:31.540Z,91.01
2023-02-25T12:36:08.009Z,89.43
2023-02-25T12:38:47.349Z,87.98
2023-02-25T12:41:20.680Z,87.74
2023-02-25T12:43:48.406Z,87.15
2023-02-25T12:46:27.682Z,86.99
2023-02-25T12:49:14.542Z,86.24
2023-02-25T12:51:47.736Z,85.73
2023-02-25T12:54:27.886Z,86.80
2023-02-25T12:57:10.497Z,87.63
2023-02-25T12:59:56.179Z,87.44
2023-02-25T13:02:42.360Z,87.63
2023-02-25T13:05:15.510Z,86.83
2023-02-25T13:08:05.736Z,87.58
2023-02-25T13:11:05.535Z,86.99
2023-02-25T13:13:33.201Z,87.68
2023-02-25T13:16:18.895Z,87.41
2023-02-25T13:18:58.332Z,87.10
2023-02-25T13:21:44.402Z,86.80
2023-02-25T13:24:24.040Z,86.99
2023-02-25T13:26:53.965Z,87.13
2023-02-25T13:29:39.942Z,87.59
2023-02-25T13:32:13.145Z,86.91
2023-02-25T13:34:49.607Z,87.71
2023-02-25T13:37:23.413Z,87.11
2023-02-25T13:40:05.938Z,87.01
2023-02-25T13:42:51.701Z,86.95
2023-02-25T13:45:33.747Z,86.61
2023-02-25T13:48:10.772Z,86.50
2023-02-25T13:50:37.848Z,86.18
2023-02-25T13:53:25.240Z,86.33
2023-02-25T13:55:52.103Z,86.00
2023-02-25T13:58:22.116Z,86.44
2023-02-25T14:01:07.941Z,86.88
2023-02-25T14:03:53.976Z,86.20
2023-02-25T14:06:39.813Z,86.01
2023-02-25T14:09:06.623Z,85.68
2023-02-25T14:11:41.947Z,85.82
2023-02-25T14:14:16.228Z,85.69
2023-02-25T14:17:01.527Z,85.60
2023-02-25T14:19:49.465Z,85.26
2023-02-25T14:22:16.341Z,85.73
2023-02-25T14:24:49.025Z,85.44
2023-02-25T14:27:34.671Z,85.79
2023-02-25T14:30:14.013Z,85.62
2023-02-25T14:32:49.895Z,85.62
2023-02-25T14:35:32.417Z,85.48
2023-02-25T14:38:05.471Z,85.49
2023-02-25T14:40:41.723Z,85.88
2023-02-25T14:43:14.782Z,85.59
2023-02-25T14:45:41.605Z,85.87
2023-02-25T14:48:18.707Z,85.88
2023-02-25T14:50:51.166Z,86.32
2023-02-25T14:53:20.946Z,86.12
2023-02-25T14:55:59.860Z,86.25
2023-02-25T14:58:35.681Z,85.91
2023-02-25T15:01:02.563Z,85.63
2023-02-25T15:03:43.396Z,85.07
2023-02-25T15:06:17.303Z,85.44
2023-02-25T15:09:03.529Z,84.79
2023-02-25T15:11:43.460Z,85.03
2023-02-25T15:14:25.603Z,85.11
2023-02-25T15:16:55.317Z,85.23
2023-02-25T15:19:34.426Z,84.99
2023-02-25T15:22:30.648Z,84.80
2023-02-25T15:25:16.195Z,84.68
2023-02-25T15:27:45.569Z,84.87
2023-02-25T15:30:12.739Z,84.43
2023-02-25T15:32:58.159Z,84.22
2023-02-25T15:35:34.001Z,84.64
2023-02-25T15:38:01.754Z,84.36
2023-02-25T15:40:31.387Z,84.48
2023-02-25T15:42:59.292Z,84.55
2023-02-25T15:45:27.025Z,84.27
2023-02-25T15:48:06.159Z,83.78
2023-02-25T15:50:53.310Z,83.91
2023-02-25T15:53:24.161Z,83.88
2023-02-25T15:56:03.098Z,83.51
2023-02-25T15:58:29.956Z,83.71
2023-02-25T16:00:57.994Z,83.53
2023-02-25T16:03:25.075Z,83.51
2023-02-25T16:05:53.263Z,83.53
2023-02-25T16:08:35.153Z,83.47
2023-02-25T16:11:03.262Z,83.40
2023-02-25T16:13:31.816Z,83.58
2023-02-25T16:15:59.954Z,83.42
2023-02-25T16:18:29.965Z,83.49
2023-02-25T16:21:07.072Z,83.52
2023-02-25T16:23:38.590Z,83.31
2023-02-25T16:26:13.017Z,83.58
2023-02-25T16:28:58.758Z,83.64
2023-02-25T16:31:41.378Z,83.62
2023-02-25T16:34:25.665Z,83.59
2023-02-25T16:37:10.686Z,83.48
2023-02-25T16:39:37.924Z,83.36
2023-02-25T16:42:08.001Z,83.53
2023-02-25T16:44:38.225Z,83.37
2023-02-25T16:47:18.076Z,83.39
2023-02-25T16:49:46.627Z,83.44
2023-02-25T16:52:16.813Z,83.27
2023-02-25T16:54:44.805Z,83.16
2023-02-25T16:57:19.643Z,83.33
2023-02-25T16:59:50.052Z,83.36
2023-02-25T17:02:16.938Z,83.35
2023-02-25T17:04:47.884Z,83.00
2023-02-25T17:07:19.563Z,82.81
2023-02-25T17:09:48.496Z,82.85
2023-02-25T17:12:18.305Z,82.39
2023-02-25T17:14:50.443Z,82.26
2023-02-25T17:17:21.170Z,82.10
2023-02-25T17:19:48.658Z,82.07
2023-02-25T17:22:18.600Z,82.07
2023-02-25T17:24:46.008Z,82.22
2023-02-25T17:27:14.177Z,82.32
2023-02-25T17:29:42.715Z,82.24
2023-02-25T17:32:26.722Z,82.14
2023-02-25T17:34:55.082Z,81.79
2023-02-25T17:37:22.578Z,82.49
2023-02-25T17:39:49.723Z,82.27
2023-02-25T17:42:35.613Z,82.20
2023-02-25T17:45:03.997Z,82.48
2023-02-25T17:47:32.238Z,82.59
2023-02-25T17:50:07.669Z,82.38
2023-02-25T17:52:34.632Z,82.39
2023-02-25T17:55:03.601Z,82.45
2023-02-25T17:57:32.114Z,82.55
2023-02-25T18:00:04.433Z,82.12
2023-02-25T18:02:38.696Z,82.09
2023-02-25T18:05:20.976Z,82.11
2023-02-25T18:07:56.846Z,82.07
2023-02-25T18:10:26.490Z,82.53
2023-02-25T18:12:54.552Z,82.71
2023-02-25T18:15:26.772Z,82.53
2023-02-25T18:17:55.297Z,82.51
2023-02-25T18:20:36.046Z,82.54
2023-02-25T18:23:03.009Z,82.31
2023-02-25T18:25:41.209Z,82.22
2023-02-25T18:28:18.649Z,82.24
2023-02-25T18:30:45.720Z,82.31
2023-02-25T18:33:12.912Z,82.45
2023-02-25T18:35:41.441Z,82.74
2023-02-25T18:38:16.148Z,82.69
2023-02-25T18:40:43.247Z,83.09
2023-02-25T18:43:21.251Z,82.87
2023-02-25T18:45:48.304Z,83.10
2023-02-25T18:48:15.659Z,83.20
2023-02-25T18:50:43.869Z,82.93
2023-02-25T18:53:13.793Z,82.94
2023-02-25T18:55:40.776Z,82.93
2023-02-25T18:58:15.055Z,82.90
2023-02-25T19:00:42.783Z,83.03
2023-02-25T19:03:11.762Z,83.08
2023-02-25T19:05:39.696Z,83.33
2023-02-25T19:08:13.853Z,83.15
2023-02-25T19:10:43.094Z,83.22
2023-02-25T19:13:20.976Z,83.35
2023-02-25T19:15:47.915Z,83.48
2023-02-25T19:18:16.295Z,83.41
2023-02-25T19:20:44.248Z,83.57
2023-02-25T19:23:13.271Z,83.41
2023-02-25T19:25:40.874Z,83.48
2023-02-25T19:28:07.762Z,83.57
2023-02-25T19:30:36.605Z,83.64
2023-02-25T19:33:05.001Z,83.68
2023-02-25T19:35:34.160Z,83.55
2023-02-25T19:38:01.487Z,83.60
2023-02-25T19:40:28.941Z,83.74
2023-02-25T19:42:55.862Z,83.82
2023-02-25T19:45:23.777Z,83.79
2023-02-25T19:47:51.414Z,83.83
2023-02-25T19:50:19.260Z,84.13
2023-02-25T19:52:46.184Z,84.12
2023-02-25T19:55:14.831Z,84.11
2023-02-25T19:57:42.203Z,83.91
2023-02-25T20:00:14.436Z,83.95
2023-02-25T20:02:41.431Z,83.81
2023-02-25T20:05:09.577Z,83.65
2023-02-25T20:07:36.416Z,83.61
2023-02-25T20:10:03.733Z,83.44
2023-02-25T20:12:30.754Z,83.15
2023-02-25T20:14:57.769Z,83.23
2023-02-25T20:17:26.009Z,83.25
2023-02-25T20:19:53.041Z,83.11
2023-02-25T20:22:23.116Z,83.48
2023-02-25T20:24:50.483Z,83.79
2023-02-25T20:27:17.674Z,83.94
2023-02-25T20:29:44.738Z,83.69
2023-02-25T20:32:11.811Z,83.95
2023-02-25T20:34:38.953Z,84.08
2023-02-25T20:37:10.306Z,83.90
2023-02-25T20:39:37.136Z,83.98
2023-02-25T20:42:13.407Z,84.36
2023-02-25T20:44:40.826Z,84.18
2023-02-25T20:47:12.587Z,84.25
2023-02-25T20:49:39.947Z,84.32
2023-02-25T20:52:07.032Z,84.01
2023-02-25T20:54:34.103Z,84.11
2023-02-25T20:57:01.776Z,84.36
2023-02-25T20:59:28.585Z,84.00
2023-02-25T21:01:57.217Z,83.96
2023-02-25T21:04:24.253Z,83.99
2023-02-25T21:06:51.165Z,83.97
2023-02-25T21:09:18.240Z,83.77
2023-02-25T21:11:45.303Z,84.08
2023-02-25T21:14:12.205Z,84.33
2023-02-25T21:16:39.053Z,84.37
2023-02-25T21:19:06.259Z,84.43
2023-02-25T21:21:36.651Z,84.57
2023-02-25T21:24:04.225Z,84.64
2023-02-25T21:26:31.126Z,84.64
2023-02-25T21:28:58.451Z,84.98
2023-02-25T21:31:25.904Z,85.18
2023-02-25T21:33:52.856Z,85.14
2023-02-25T21:36:19.690Z,85.02
2023-02-25T21:38:46.554Z,84.88
2023-02-25T21:41:14.270Z,85.20
2023-02-25T21:43:41.943Z,85.14
2023-02-25T21:46:11.146Z,85.25
2023-02-25T21:48:38.867Z,85.08
2023-02-25T21:51:06.420Z,84.85
2023-02-25T21:53:33.444Z,84.98
2023-02-25T21:56:16.624Z,85.28
2023-02-25T21:58:44.565Z,84.94
2023-02-25T22:01:13.070Z,85.15
2023-02-25T22:03:40.115Z,85.22
2023-02-25T22:06:07.579Z,85.47
2023-02-25T22:08:34.821Z,85.30
2023-02-25T22:11:01.788Z,85.62
2023-02-25T22:13:32.023Z,85.51
2023-02-25T22:16:00.265Z,85.52
2023-02-25T22:18:27.702Z,85.21
2023-02-25T22:21:02.577Z,85.40
2023-02-25T22:23:29.792Z,85.19
2023-02-25T22:26:00.248Z,85.10
2023-02-25T22:28:27.177Z,84.96
2023-02-25T22:30:54.201Z,84.43
2023-02-25T22:33:21.230Z,84.16
2023-02-25T22:35:55.494Z,84.03
2023-02-25T22:38:22.396Z,84.05
2023-02-25T22:40:49.451Z,84.00
2023-02-25T22:43:16.389Z,83.53
2023-02-25T22:45:43.236Z,83.38
2023-02-25T22:48:10.174Z,83.31
2023-02-25T22:50:37.146Z,83.12
2023-02-25T22:53:04.255Z,83.38
2023-02-25T22:55:32.553Z,83.29
2023-02-25T22:57:59.662Z,83.25
2023-02-25T23:00:34.425Z,83.10
2023-02-25T23:03:01.463Z,82.99
2023-02-25T23:05:28.578Z,83.19
2023-02-25T23:07:55.619Z,83.15
2023-02-25T23:10:23.535Z,83.22
2023-02-25T23:12:50.475Z,83.42
2023-02-25T23:15:17.365Z,83.50
2023-02-25T23:17:45.579Z,83.52
2023-02-25T23:20:13.105Z,83.82
2023-02-25T23:22:40.201Z,83.87
2023-02-25T23:25:07.658Z,83.97
2023-02-25T23:27:34.814Z,84.01
2023-02-25T23:30:02.089Z,84.13
2023-02-25T23:32:29.181Z,83.98
2023-02-25T23:34:56.164Z,84.09
2023-02-25T23:37:23.077Z,83.95
2023-02-25T23:39:49.909Z,83.90
2023-02-25T23:42:16.933Z,83.88
2023-02-25T23:44:43.844Z,84.12
2023-02-25T23:47:10.732Z,83.95
2023-02-25T23:49:37.787Z,83.50
2023-02-25T23:52:04.725Z,83.78
2023-02-25T23:54:31.672Z,84.38
2023-02-25T23:56:58.724Z,84.25
2023-02-25T23:59:25.645Z,84.24
